Time;durP1;ratioP1;P1;durP2;ratioP2;P2;SDS_P1;SDS_P2;PMS_P1;PMS_P2;Temp;Humidity;BMP_temperature;BMP_pressure;BME280_temperature;BME280_humidity;BME280_pressure;Samples;Min_cycle;Max_cycle;Signal;HPM_P1;HPM_P2
2022/05/28 00:01:01;;;;;;;17.73;5.00;;;14.90;1.00;;;;;;4992570;28;20509;-59
2022/05/28 00:03:28;;;;;;;9.70;4.90;;;14.90;99.90;;;;;;4992600;28;20818;-60
2022/05/28 00:05:54;;;;;;;12.38;4.53;;;14.90;99.90;;;;;;4991972;28;20418;-62
2022/05/28 00:08:19;;;;;;;8.85;4.60;;;15.00;1.00;;;;;;4992212;28;20416;-60
2022/05/28 00:10:47;;;;;;;9.77;4.50;;;15.00;1.00;;;;;;4991411;28;20872;-59
2022/05/28 00:13:13;;;;;;;10.27;4.70;;;15.00;1.00;;;;;;4992449;28;20886;-60
2022/05/28 00:15:41;;;;;;;14.27;4.88;;;15.00;1.00;;;;;;4988835;28;20803;-59
2022/05/28 00:18:08;;;;;;;8.75;4.82;;;15.10;1.00;;;;;;4991606;28;20506;-59
2022/05/28 00:20:34;;;;;;;11.50;4.90;;;15.00;1.00;;;;;;4991102;28;20938;-60
2022/05/28 00:23:00;;;;;;;10.48;4.57;;;14.80;1.00;;;;;;4991430;28;20402;-59
2022/05/28 00:25:26;;;;;;;10.90;4.60;;;14.80;1.00;;;;;;4991668;28;20497;-59
2022/05/28 00:27:53;;;;;;;9.60;4.20;;;14.80;99.90;;;;;;4990798;28;20457;-59
2022/05/28 00:30:19;;;;;;;14.55;5.38;;;14.70;99.90;;;;;;4991741;28;20393;-59
2022/05/28 00:32:46;;;;;;;11.38;4.68;;;14.60;99.90;;;;;;4987778;28;20391;-60
2022/05/28 00:35:18;;;;;;;11.48;4.40;;;14.60;99.90;;;;;;4992273;28;20417;-60
2022/05/28 00:37:45;;;;;;;11.35;4.55;;;14.50;99.90;;;;;;4990193;28;20399;-59
2022/05/28 00:40:21;;;;;;;9.82;4.60;;;14.40;99.90;;;;;;4991556;28;20892;-60
2022/05/28 00:42:48;;;;;;;13.00;5.20;;;14.40;1.00;;;;;;4988465;28;20398;-59
2022/05/28 00:45:14;;;;;;;13.80;5.27;;;14.40;1.00;;;;;;4991752;28;20418;-60
2022/05/28 00:47:47;;;;;;;10.05;4.50;;;14.40;99.90;;;;;;4990347;28;20410;-60
2022/05/28 00:50:14;;;;;;;11.45;4.68;;;14.30;1.00;;;;;;4989929;28;20486;-60
2022/05/28 00:52:40;;;;;;;11.80;5.37;;;14.20;1.00;;;;;;4990460;28;20392;-60
2022/05/28 00:55:07;;;;;;;9.95;4.30;;;14.30;1.00;;;;;;4991218;28;20391;-59
2022/05/28 00:57:33;;;;;;;9.68;4.50;;;14.10;99.90;;;;;;4989965;28;20395;-58
2022/05/28 00:59:58;;;;;;;13.18;4.68;;;14.00;99.90;;;;;;4991227;28;20958;-60
2022/05/28 01:02:49;;;;;;;10.82;3.88;;;14.00;99.90;;;;;;4990594;28;20395;-59
2022/05/28 01:05:45;;;;;;;10.93;4.30;;;14.10;55.00;;;;;;4989755;28;20505;-59
2022/05/28 01:08:26;;;;;;;10.70;4.70;;;14.20;1.00;;;;;;4989434;28;20497;-60
2022/05/28 01:11:35;;;;;;;9.70;4.00;;;14.30;1.00;;;;;;4987328;28;21049;-60
2022/05/28 01:14:24;;;;;;;9.95;4.03;;;14.10;99.90;;;;;;4989683;28;20417;-58
2022/05/28 01:16:55;;;;;;;11.35;4.50;;;14.00;99.90;;;;;;4987065;28;20414;-59
2022/05/28 01:19:38;;;;;;;9.73;4.50;;;13.90;90.40;;;;;;4990211;28;20428;-58
2022/05/28 01:22:18;;;;;;;10.50;3.97;;;13.80;99.90;;;;;;4989788;28;20432;-57
2022/05/28 01:24:49;;;;;;;10.25;4.28;;;13.70;99.90;;;;;;4989553;28;20513;-60
2022/05/28 01:27:21;;;;;;;9.10;3.88;;;13.60;99.90;;;;;;4990668;28;20904;-59
2022/05/28 01:29:51;;;;;;;12.73;4.00;;;13.70;99.90;;;;;;4987185;28;20406;-58
2022/05/28 01:32:19;;;;;;;10.30;3.83;;;13.60;99.90;;;;;;4990668;28;20390;-58
2022/05/28 01:34:46;;;;;;;11.85;3.55;;;13.60;27.50;;;;;;4989591;28;21389;-58
2022/05/28 01:37:13;;;;;;;11.23;4.15;;;13.40;1.00;;;;;;4990573;28;20433;-58
2022/05/28 01:39:42;;;;;;;11.25;3.50;;;13.30;1.00;;;;;;4989805;28;20406;-58
2022/05/28 01:42:09;;;;;;;10.35;2.97;;;13.40;1.00;;;;;;4990564;28;20394;-58
2022/05/28 01:44:37;;;;;;;11.68;3.17;;;13.40;99.90;;;;;;4989186;28;20501;-58
2022/05/28 01:47:03;;;;;;;10.63;3.10;;;13.40;99.90;;;;;;4973098;28;20394;-57
2022/05/28 01:49:29;;;;;;;9.63;3.00;;;13.40;99.90;;;;;;4990179;28;20898;-53
2022/05/28 01:51:58;;;;;;;9.57;3.43;;;13.40;99.90;;;;;;4990104;28;20397;-57
2022/05/28 01:54:27;;;;;;;10.02;2.90;;;13.30;99.90;;;;;;4989986;28;20403;-58
2022/05/28 01:56:55;;;;;;;10.57;2.92;;;13.20;99.90;;;;;;4989277;28;20444;-58
2022/05/28 01:59:31;;;;;;;8.48;3.03;;;13.30;99.90;;;;;;4989184;28;20489;-57
2022/05/28 02:02:00;;;;;;;10.05;2.90;;;13.30;99.90;;;;;;4988917;28;20387;-58
2022/05/28 02:04:26;;;;;;;10.63;3.25;;;13.40;72.30;;;;;;4987320;28;20415;-58
2022/05/28 02:06:51;;;;;;;10.27;3.80;;;13.30;40.40;;;;;;4989373;28;20465;-57
2022/05/28 02:09:28;;;;;;;10.35;3.72;;;14.30;61.30;;;;;;4990075;28;20410;-57
2022/05/28 02:12:26;;;;;;;9.02;3.30;;;13.10;99.90;;;;;;4987621;28;20422;-58
2022/05/28 02:15:07;;;;;;;11.43;3.20;;;13.10;98.40;;;;;;4966250;28;20494;-58
2022/05/28 02:17:57;;;;;;;13.70;4.30;;;13.00;99.90;;;;;;4986490;28;20773;-53
2022/05/28 02:20:51;;;;;;;10.63;3.28;;;13.00;99.90;;;;;;4989348;28;20919;-57
2022/05/28 02:23:23;;;;;;;9.57;3.33;;;13.00;96.10;;;;;;4977792;28;20481;-58
2022/05/28 02:25:55;;;;;;;12.07;3.20;;;13.00;99.90;;;;;;4985666;28;20496;-58
2022/05/28 02:28:23;;;;;;;10.65;3.00;;;12.80;99.90;;;;;;4989585;28;20605;-58
2022/05/28 02:31:01;;;;;;;8.50;2.72;;;12.80;99.90;;;;;;4986637;28;20883;-58
2022/05/28 02:33:27;;;;;;;11.10;3.28;;;12.70;99.90;;;;;;4987061;28;20426;-58
2022/05/28 02:35:53;;;;;;;10.40;3.00;;;12.70;99.90;;;;;;4989270;28;20567;-58
2022/05/28 02:38:19;;;;;;;10.30;2.80;;;12.60;99.90;;;;;;4989351;28;20912;-58
2022/05/28 02:40:45;;;;;;;9.40;3.40;;;12.60;99.90;;;;;;4988906;28;20406;-58
2022/05/28 02:43:11;;;;;;;13.40;3.38;;;12.50;99.90;;;;;;4988907;28;20429;-58
2022/05/28 02:45:38;;;;;;;9.50;2.60;;;12.50;99.90;;;;;;4987291;28;20417;-58
2022/05/28 02:48:04;;;;;;;10.70;2.80;;;12.50;99.90;;;;;;4989183;28;20457;-57
2022/05/28 02:50:30;;;;;;;12.52;3.33;;;12.40;99.90;;;;;;4989698;28;20856;-58
2022/05/28 02:52:56;;;;;;;8.52;3.10;;;12.30;99.90;;;;;;4988939;28;20394;-57
2022/05/28 02:55:22;;;;;;;13.60;3.00;;;12.20;99.90;;;;;;4990903;28;20879;-57
2022/05/28 02:57:48;;;;;;;12.65;2.58;;;12.10;99.90;;;;;;4988665;28;20852;-58
2022/05/28 03:00:17;;;;;;;10.35;2.60;;;12.00;99.90;;;;;;4989323;28;20405;-57
2022/05/28 03:02:44;;;;;;;10.77;2.78;;;11.90;99.90;;;;;;4992136;28;20469;-58
2022/05/28 03:05:12;;;;;;;10.45;2.65;;;11.90;99.90;;;;;;4993221;28;20410;-58
2022/05/28 03:07:37;;;;;;;9.75;2.92;;;11.80;99.90;;;;;;4992314;28;20393;-57
2022/05/28 03:10:03;;;;;;;11.83;2.50;;;11.80;99.90;;;;;;4993023;28;20406;-57
2022/05/28 03:12:29;;;;;;;8.40;2.38;;;11.80;99.90;;;;;;4993502;28;20468;-58
2022/05/28 03:14:54;;;;;;;12.37;2.70;;;11.70;99.90;;;;;;4992037;28;20394;-57
2022/05/28 03:17:20;;;;;;;9.90;2.90;;;11.60;99.90;;;;;;4993260;28;20402;-57
2022/05/28 03:19:46;;;;;;;10.95;2.70;;;11.50;99.90;;;;;;4992099;28;20398;-59
2022/05/28 03:22:11;;;;;;;15.63;2.80;;;11.40;99.90;;;;;;4993226;28;20485;-59
2022/05/28 03:24:37;;;;;;;9.63;2.50;;;11.30;99.90;;;;;;4992153;28;20813;-59
2022/05/28 03:27:03;;;;;;;12.37;3.20;;;11.20;99.90;;;;;;4993262;28;20402;-59
2022/05/28 03:29:28;;;;;;;11.27;2.60;;;11.10;99.90;;;;;;4992942;28;20398;-59
2022/05/28 03:31:55;;;;;;;9.77;3.07;;;11.00;99.90;;;;;;4992076;28;20392;-59
2022/05/28 03:34:21;;;;;;;11.68;2.92;;;10.90;99.90;;;;;;4992595;28;20509;-60
2022/05/28 03:36:46;;;;;;;12.83;3.00;;;10.90;99.90;;;;;;4989533;28;20829;-59
2022/05/28 03:39:12;;;;;;;13.93;3.08;;;10.80;99.90;;;;;;4992917;28;20421;-60
2022/05/28 03:41:38;;;;;;;11.47;2.30;;;10.80;99.90;;;;;;4992038;28;20856;-59
2022/05/28 03:44:04;;;;;;;8.48;3.10;;;10.90;99.90;;;;;;4992236;28;20458;-59
2022/05/28 03:46:32;;;;;;;11.32;3.83;;;11.00;99.90;;;;;;4992922;28;20740;-58
2022/05/28 03:49:01;;;;;;;9.55;2.33;;;11.00;99.90;;;;;;4992249;28;20397;-58
2022/05/28 03:51:27;;;;;;;13.27;2.60;;;11.00;99.90;;;;;;4989883;28;20398;-59
2022/05/28 03:53:53;;;;;;;13.35;2.88;;;11.00;99.90;;;;;;4991510;28;20477;-59
2022/05/28 03:56:20;;;;;;;10.95;2.60;;;10.90;99.90;;;;;;4992531;28;20393;-59
2022/05/28 03:58:45;;;;;;;10.40;2.40;;;10.80;99.90;;;;;;4991501;28;20403;-59
2022/05/28 04:01:11;;;;;;;9.98;2.58;;;10.80;99.90;;;;;;4992133;28;20457;-59
2022/05/28 04:03:37;;;;;;;11.47;3.03;;;10.80;99.90;;;;;;4991486;28;20393;-59
2022/05/28 04:06:03;;;;;;;8.38;2.60;;;10.70;1.00;;;;;;4991986;28;20457;-59
2022/05/28 04:08:29;;;;;;;9.80;2.60;;;10.60;1.00;;;;;;4992220;28;20394;-57
2022/05/28 04:10:55;;;;;;;10.38;2.70;;;10.50;1.00;;;;;;4991333;28;20971;-59
2022/05/28 04:13:21;;;;;;;10.38;2.88;;;10.50;1.00;;;;;;4991364;28;20386;-59
2022/05/28 04:15:49;;;;;;;12.40;3.03;;;10.50;99.90;;;;;;4991232;28;20493;-59
2022/05/28 04:18:15;;;;;;;8.93;2.10;;;10.60;99.90;;;;;;4991760;28;20457;-60
2022/05/28 04:20:41;;;;;;;13.70;3.00;;;10.60;99.90;;;;;;4991290;28;20429;-59
2022/05/28 04:23:06;;;;;;;10.77;2.70;;;10.60;99.90;;;;;;4991791;28;20418;-58
2022/05/28 04:25:32;;;;;;;9.63;2.50;;;10.70;99.90;;;;;;4991965;28;20414;-54
2022/05/28 04:27:58;;;;;;;9.63;2.15;;;10.70;99.90;;;;;;4988659;28;20755;-59
2022/05/28 04:30:24;;;;;;;12.30;2.40;;;10.60;99.90;;;;;;4991701;28;20390;-59
2022/05/28 04:32:49;;;;;;;11.23;2.58;;;10.60;1.00;;;;;;4991139;28;20558;-57
2022/05/28 04:35:15;;;;;;;9.33;2.40;;;10.60;1.00;;;;;;4991323;28;20823;-59
2022/05/28 04:37:41;;;;;;;11.93;2.53;;;10.70;1.00;;;;;;4990343;28;20789;-59
2022/05/28 04:40:08;;;;;;;10.45;2.50;;;10.70;1.00;;;;;;4991481;28;20429;-59
2022/05/28 04:42:33;;;;;;;10.55;2.80;;;10.90;1.00;;;;;;4991381;28;20525;-55
2022/05/28 04:44:59;;;;;;;10.25;2.30;;;11.00;99.90;;;;;;4990958;28;20505;-60
2022/05/28 04:47:24;;;;;;;9.05;2.60;;;11.20;99.90;;;;;;4991520;28;20882;-59
2022/05/28 04:49:50;;;;;;;9.77;2.60;;;11.20;99.90;;;;;;4990728;28;20405;-59
2022/05/28 04:52:16;;;;;;;8.90;2.60;;;11.30;99.90;;;;;;4991480;28;20788;-57
2022/05/28 04:54:41;;;;;;;11.57;2.70;;;11.50;99.90;;;;;;4990171;28;20425;-58
2022/05/28 04:57:07;;;;;;;10.55;2.30;;;12.30;99.90;;;;;;4990142;28;20383;-58
2022/05/28 04:59:33;;;;;;;8.00;2.30;;;13.20;1.00;;;;;;4991266;28;20741;-57
2022/05/28 05:01:59;;;;;;;7.85;2.75;;;14.10;1.00;;;;;;4990267;28;20383;-60
2022/05/28 05:04:25;;;;;;;10.93;2.60;;;14.80;1.00;;;;;;4991212;28;20817;-60
2022/05/28 05:06:50;;;;;;;11.65;2.60;;;15.50;99.90;;;;;;4972943;28;20438;-60
2022/05/28 05:09:16;;;;;;;8.07;2.80;;;16.30;99.90;;;;;;4973586;28;20477;-60
2022/05/28 05:11:42;;;;;;;10.50;2.90;;;16.40;99.90;;;;;;4990128;28;20415;-57
2022/05/28 05:14:07;;;;;;;11.18;2.63;;;16.30;99.90;;;;;;4991071;28;20422;-59
2022/05/28 05:16:33;;;;;;;9.98;2.35;;;16.40;99.90;;;;;;4991327;28;20391;-58
2022/05/28 05:18:59;;;;;;;10.00;2.70;;;17.10;99.90;;;;;;4988701;28;20403;-59
2022/05/28 05:21:24;;;;;;;10.67;2.80;;;17.90;99.90;;;;;;4990380;28;20473;-65
2022/05/28 05:23:50;;;;;;;9.17;2.60;;;17.50;99.90;;;;;;4990316;28;20477;-66
2022/05/28 05:26:19;;;;;;;9.55;3.00;;;17.70;99.90;;;;;;4990928;28;20406;-66
2022/05/28 05:28:45;;;;;;;8.95;2.72;;;18.00;99.90;;;;;;4990228;28;20395;-64
2022/05/28 05:31:12;;;;;;;9.60;2.40;;;18.10;99.90;;;;;;4991144;28;20426;-64
2022/05/28 05:33:37;;;;;;;10.05;2.40;;;17.80;99.90;;;;;;4990279;28;20391;-58
2022/05/28 05:36:03;;;;;;;8.53;2.47;;;17.90;99.90;;;;;;4990680;28;20476;-64
2022/05/28 05:38:29;;;;;;;8.55;2.55;;;18.30;99.90;;;;;;4990306;28;20462;-60
2022/05/28 05:40:55;;;;;;;9.53;3.00;;;18.00;99.90;;;;;;4988731;28;21005;-64
2022/05/28 05:43:20;;;;;;;10.37;2.30;;;18.30;99.90;;;;;;4990048;28;20464;-65
2022/05/28 05:45:53;;;;;;;8.83;2.20;;;18.40;99.90;;;;;;4988921;28;20906;-65
2022/05/28 05:48:19;;;;;;;7.78;2.08;;;18.00;99.90;;;;;;4990898;28;20386;-66
2022/05/28 05:50:45;;;;;;;8.70;2.42;;;17.60;99.90;;;;;;4989770;28;20752;-65
2022/05/28 05:53:10;;;;;;;9.82;2.10;;;17.40;99.90;;;;;;4990891;28;20878;-65
2022/05/28 05:55:36;;;;;;;9.23;2.40;;;17.60;99.90;;;;;;4988837;28;20482;-59
2022/05/28 05:58:02;;;;;;;7.63;2.20;;;18.00;99.90;;;;;;4989312;28;20803;-64
2022/05/28 06:00:28;;;;;;;10.07;2.30;;;18.60;99.90;;;;;;4968459;28;21194;-64
2022/05/28 06:02:53;;;;;;;9.27;2.50;;;19.30;99.90;;;;;;4985877;28;20891;-65
2022/05/28 06:05:28;;;;;;;9.75;2.45;;;19.90;99.90;;;;;;4978444;28;20934;-65
2022/05/28 06:07:54;;;;;;;9.57;2.70;;;21.10;99.90;;;;;;4985651;28;20553;-66
2022/05/28 06:10:19;;;;;;;8.83;2.50;;;21.30;99.90;;;;;;4988219;28;20849;-65
2022/05/28 06:12:45;;;;;;;8.90;2.47;;;20.60;99.90;;;;;;4985624;28;20414;-65
2022/05/28 06:15:12;;;;;;;8.80;2.30;;;20.70;99.90;;;;;;4987723;28;20425;-66
2022/05/28 06:17:38;;;;;;;10.90;3.10;;;21.00;99.90;;;;;;4985529;28;20410;-62
2022/05/28 06:20:07;;;;;;;10.52;3.00;;;21.10;99.90;;;;;;4986684;28;20753;-66
2022/05/28 06:22:59;;;;;;;7.32;2.40;;;20.30;99.90;;;;;;4986363;28;20417;-66
2022/05/28 06:25:47;;;;;;;7.68;2.50;;;20.60;99.90;;;;;;4983062;28;20426;-66
2022/05/28 06:28:13;;;;;;;10.43;2.42;;;20.80;99.90;;;;;;4986931;28;20414;-66
2022/05/28 06:30:44;;;;;;;7.65;2.40;;;20.40;99.90;;;;;;4983588;28;20520;-63
2022/05/28 06:33:11;;;;;;;10.57;2.47;;;20.90;99.90;;;;;;4985451;28;20776;-66
2022/05/28 06:35:37;;;;;;;9.87;3.20;;;;;;;;;;4985824;28;20457;-60
2022/05/28 06:38:04;;;;;;;9.00;3.90;;;23.80;99.90;;;;;;4986449;28;20408;-65
2022/05/28 06:40:31;;;;;;;9.23;3.90;;;24.10;99.90;;;;;;4987210;28;20427;-66
2022/05/28 06:42:57;;;;;;;9.48;3.80;;;23.20;99.90;;;;;;4987335;28;20390;-66
2022/05/28 06:45:24;;;;;;;9.90;4.32;;;23.40;99.90;;;;;;4984823;28;20449;-66
2022/05/28 06:47:50;;;;;;;9.80;4.13;;;24.30;99.90;;;;;;4967883;28;20397;-65
2022/05/28 06:53:03;;;;;;;9.63;4.90;;;24.50;99.90;;;;;;4987973;28;20382;-65
2022/05/28 06:55:29;;;;;;;9.55;4.30;;;25.00;99.90;;;;;;4987742;28;20414;-64
2022/05/28 06:57:55;;;;;;;8.55;3.28;;;26.10;99.90;;;;;;4985052;28;20484;-67
2022/05/28 07:00:21;;;;;;;9.20;4.60;;;25.90;99.90;;;;;;4988559;28;20478;-67
2022/05/28 07:02:47;;;;;;;8.65;4.43;;;25.80;99.90;;;;;;4988760;28;20465;-67
2022/05/28 07:05:14;;;;;;;9.20;4.40;;;24.60;99.90;;;;;;4989085;28;20414;-68
2022/05/28 07:07:41;;;;;;;7.80;3.90;;;24.10;99.90;;;;;;4988748;28;20393;-67
2022/05/28 07:10:08;;;;;;;8.18;4.03;;;24.50;99.90;;;;;;4988882;28;20441;-65
2022/05/28 07:12:34;;;;;;;7.50;4.30;;;24.40;99.90;;;;;;4989372;28;20876;-67
2022/05/28 07:15:00;;;;;;;10.02;4.00;;;24.50;99.90;;;;;;4988570;28;20482;-66
2022/05/28 07:17:25;;;;;;;8.23;4.20;;;24.60;99.90;;;;;;4989597;28;20447;-60
2022/05/28 07:19:51;;;;;;;9.60;4.00;;;24.40;99.90;;;;;;4988939;28;20406;-62
2022/05/28 07:22:17;;;;;;;7.78;4.25;;;25.00;99.90;;;;;;4989290;28;20759;-65
2022/05/28 07:24:43;;;;;;;9.82;4.45;;;25.60;99.90;;;;;;4988271;28;20422;-63
2022/05/28 07:27:11;;;;;;;9.20;4.10;;;25.40;99.90;;;;;;4988240;28;20833;-65
2022/05/28 07:29:37;;;;;;;7.87;4.00;;;24.10;99.90;;;;;;4987517;28;20398;-60
2022/05/28 07:32:03;;;;;;;8.90;3.50;;;25.40;99.90;;;;;;4987665;28;20410;-67
2022/05/28 07:34:29;;;;;;;8.45;3.60;;;25.60;99.90;;;;;;4989536;28;20587;-67
2022/05/28 07:36:54;;;;;;;7.75;4.03;;;25.50;99.90;;;;;;4985139;28;20442;-66
2022/05/28 07:39:20;;;;;;;11.50;4.20;;;25.40;99.90;;;;;;4984559;28;20402;-67
2022/05/28 07:41:46;;;;;;;8.90;3.80;;;24.80;99.90;;;;;;4987347;28;20421;-67
2022/05/28 07:44:12;;;;;;;8.93;3.70;;;24.70;99.90;;;;;;4987765;28;20420;-68
2022/05/28 07:46:38;;;;;;;7.72;3.90;;;24.60;99.90;;;;;;4988242;28;20437;-60
2022/05/28 07:49:04;;;;;;;7.72;3.65;;;24.20;99.90;;;;;;4973271;28;20386;-65
2022/05/28 07:51:30;;;;;;;8.63;3.97;;;23.30;99.90;;;;;;4992724;28;20395;-68
2022/05/28 07:53:56;;;;;;;8.65;4.00;;;24.10;99.90;;;;;;4973543;28;21240;-69
2022/05/28 07:56:22;;;;;;;7.63;3.05;;;24.30;99.90;;;;;;4983428;28;20406;-66
2022/05/28 07:58:50;;;;;;;8.25;3.72;;;23.70;99.90;;;;;;4990448;28;20408;-70
2022/05/28 08:01:23;;;;;;;8.90;3.60;;;22.80;99.90;;;;;;4989671;28;20414;-66
2022/05/28 08:03:50;;;;;;;8.70;3.50;;;22.60;99.90;;;;;;4989179;28;20418;-69
2022/05/28 08:06:16;;;;;;;8.32;4.15;;;22.80;99.90;;;;;;4990139;28;20422;-68
2022/05/28 08:08:42;;;;;;;10.23;3.60;;;22.10;99.90;;;;;;4981281;28;20958;-68
2022/05/28 08:11:08;;;;;;;7.85;3.10;;;22.00;99.90;;;;;;4990253;28;20426;-68
2022/05/28 08:13:34;;;;;;;7.60;3.30;;;22.60;99.90;;;;;;4989277;28;20882;-66
2022/05/28 08:16:00;;;;;;;9.10;3.58;;;23.30;99.90;;;;;;4988881;28;20572;-68
2022/05/28 08:18:27;;;;;;;7.20;3.90;;;21.40;99.90;;;;;;4989795;28;20457;-64
2022/05/28 08:23:40;;;;;;;9.05;3.03;;;20.80;99.90;;;;;;4990826;28;20429;-60
2022/05/28 08:26:06;;;;;;;8.50;3.15;;;21.70;99.90;;;;;;4973517;28;20505;-67
2022/05/28 08:28:32;;;;;;;8.60;3.20;;;22.90;99.90;;;;;;4990906;28;20395;-67
2022/05/28 08:30:57;;;;;;;8.30;3.00;;;24.00;99.90;;;;;;4991244;28;20999;-68
2022/05/28 08:33:23;;;;;;;7.60;3.30;;;24.80;99.90;;;;;;4990128;28;20410;-68
2022/05/28 08:35:50;;;;;;;8.60;2.90;;;26.30;99.90;;;;;;4987425;28;20414;-67
2022/05/28 08:38:21;;;;;;;8.50;3.40;;;26.50;99.90;;;;;;4990345;28;20470;-71
2022/05/28 08:40:54;;;;;;;28.63;6.53;;;26.70;99.90;;;;;;4994512;28;20466;-65
2022/05/28 08:43:22;;;;;;;8.90;2.70;;;24.80;99.90;;;;;;4984618;28;20406;-66
2022/05/28 08:45:50;;;;;;;7.45;2.60;;;23.60;99.90;;;;;;4985695;28;20414;-66
2022/05/28 08:48:26;;;;;;;7.35;2.47;;;23.00;99.90;;;;;;4991720;28;20399;-65
2022/05/28 08:51:15;;;;;;;7.90;2.90;;;22.30;99.90;;;;;;4994373;28;20866;-65
2022/05/28 08:53:52;;;;;;;7.25;3.00;;;21.80;99.90;;;;;;4984390;28;20425;-63
2022/05/28 08:56:24;;;;;;;6.50;2.30;;;22.80;99.90;;;;;;4990003;28;20463;-67
2022/05/28 08:59:03;;;;;;;8.00;2.80;;;23.60;99.90;;;;;;4993378;28;20391;-65
2022/05/28 09:01:32;;;;;;;7.43;2.50;;;24.60;99.90;;;;;;4990344;28;20391;-66
2022/05/28 09:04:05;;;;;;;7.88;3.08;;;26.50;99.90;;;;;;4992467;28;20377;-64
2022/05/28 09:06:44;;;;;;;9.02;3.63;;;27.30;99.90;;;;;;4995526;28;20382;-65
2022/05/28 09:09:13;;;;;;;7.90;3.20;;;27.60;99.90;;;;;;4995695;28;20445;-68
2022/05/28 09:11:48;;;;;;;7.50;3.20;;;27.40;99.90;;;;;;4991420;28;20441;-58
2022/05/28 09:14:35;;;;;;;7.40;3.10;;;27.20;99.90;;;;;;4993362;28;20415;-67
2022/05/28 09:17:16;;;;;;;9.63;3.47;;;27.30;99.90;;;;;;4992765;28;20453;-67
2022/05/28 09:19:44;;;;;;;7.40;2.95;;;27.60;99.90;;;;;;4993976;28;20391;-65
2022/05/28 09:22:10;;;;;;;8.43;3.27;;;27.00;99.90;;;;;;4995963;28;20381;-67
2022/05/28 09:24:37;;;;;;;7.40;3.17;;;26.90;99.90;;;;;;4995107;28;20420;-59
2022/05/28 09:27:24;;;;;;;8.18;3.10;;;25.20;99.90;;;;;;4994037;28;20396;-68
2022/05/28 09:30:11;;;;;;;10.13;2.70;;;23.30;99.90;;;;;;4995207;28;20409;-65
2022/05/28 09:32:54;;;;;;;7.15;2.60;;;22.70;99.90;;;;;;4993873;28;20394;-57
2022/05/28 09:35:41;;;;;;;8.20;2.70;;;21.90;99.90;;;;;;4990562;28;21366;-67
2022/05/28 09:38:32;;;;;;;8.73;3.00;;;21.40;99.90;;;;;;4993745;28;20433;-65
2022/05/28 09:41:36;;;;;;;7.53;2.35;;;21.40;99.90;;;;;;4992851;28;20750;-65
2022/05/28 09:44:14;;;;;;;8.05;2.47;;;23.10;99.90;;;;;;4988444;28;20785;-64
2022/05/28 09:46:42;;;;;;;6.97;2.40;;;23.50;99.90;;;;;;4992910;28;20410;-54
2022/05/28 09:49:20;;;;;;;9.02;2.40;;;24.20;99.90;;;;;;4992413;28;20486;-64
2022/05/28 09:52:09;;;;;;;7.95;2.50;;;24.00;99.90;;;;;;4993215;28;20842;-65
2022/05/28 09:54:36;;;;;;;9.27;3.05;;;23.20;99.90;;;;;;4978995;28;20413;-64
2022/05/28 09:57:22;;;;;;;8.10;2.80;;;22.60;99.90;;;;;;4989704;28;20453;-64
2022/05/28 09:59:52;;;;;;;7.60;2.60;;;22.60;99.90;;;;;;4992993;28;20402;-64
2022/05/28 10:02:25;;;;;;;7.47;2.90;;;22.00;99.90;;;;;;4995232;28;20840;-65
2022/05/28 10:05:03;;;;;;;7.90;3.00;;;21.60;99.90;;;;;;4992002;28;20477;-64
2022/05/28 10:07:42;;;;;;;8.43;3.10;;;21.30;99.90;;;;;;4990361;28;20389;-65
2022/05/28 10:10:16;;;;;;;7.88;2.75;;;21.50;99.90;;;;;;4993286;28;20884;-65
2022/05/28 10:12:42;;;;;;;9.02;3.00;;;21.80;99.90;;;;;;4988132;28;20442;-63
2022/05/28 10:15:14;;;;;;;7.63;2.50;;;22.30;99.90;;;;;;4989077;28;20481;-65
2022/05/28 10:17:43;;;;;;;9.37;3.10;;;22.30;99.90;;;;;;4992239;28;20399;-56
2022/05/28 10:20:17;;;;;;;14.00;11.32;;;21.80;99.90;;;;;;4997091;28;20393;-64
2022/05/28 10:22:45;;;;;;;8.10;2.80;;;21.00;99.90;;;;;;4991082;28;20468;-65
2022/05/28 10:25:30;;;;;;;7.20;3.05;;;20.60;99.90;;;;;;4996694;28;20894;-63
2022/05/28 10:27:56;;;;;;;8.93;3.00;;;20.40;99.90;;;;;;4993729;28;20472;-63
2022/05/28 10:30:32;;;;;;;7.90;3.50;;;19.60;99.90;;;;;;4989532;28;20387;-62
2022/05/28 10:33:01;;;;;;;9.83;3.30;;;19.60;99.90;;;;;;4993121;28;21109;-62
2022/05/28 10:35:29;;;;;;;7.73;2.70;;;20.10;99.90;;;;;;4990518;28;20488;-61
2022/05/28 10:38:26;;;;;;;10.07;3.28;;;20.60;99.90;;;;;;4991311;28;20396;-62
2022/05/28 10:41:00;;;;;;;6.15;2.92;;;21.60;99.90;;;;;;4987020;28;20484;-66
2022/05/28 10:43:33;;;;;;;7.32;2.33;;;21.40;99.90;;;;;;4990841;28;20481;-65
2022/05/28 10:46:08;;;;;;;7.70;2.90;;;20.80;99.90;;;;;;4993957;28;20412;-64
2022/05/28 10:49:00;;;;;;;8.20;2.85;;;20.50;99.90;;;;;;4993271;28;20420;-63
2022/05/28 10:51:28;;;;;;;9.53;2.73;;;21.10;99.90;;;;;;4989510;28;20399;-63
2022/05/28 10:54:31;;;;;;;7.13;2.63;;;21.20;99.90;;;;;;4990067;28;20407;-64
2022/05/28 10:57:31;;;;;;;8.60;3.05;;;21.10;99.90;;;;;;4992906;28;20421;-64
2022/05/28 11:00:11;;;;;;;8.27;2.85;;;20.90;99.90;;;;;;4995444;28;20421;-63
2022/05/28 11:02:58;;;;;;;6.82;2.45;;;20.60;99.90;;;;;;4991597;28;20874;-54
2022/05/28 11:05:44;;;;;;;8.57;2.80;;;20.10;99.90;;;;;;4989053;28;20970;-63
2022/05/28 11:08:34;;;;;;;7.90;3.22;;;19.30;99.90;;;;;;4994107;28;20415;-62
2022/05/28 11:11:15;;;;;;;8.45;3.03;;;19.10;99.90;;;;;;4992447;28;20425;-62
2022/05/28 11:14:17;;;;;;;10.38;3.22;;;19.20;99.90;;;;;;4989433;28;20390;-55
2022/05/28 11:17:21;;;;;;;7.40;2.47;;;19.60;99.90;;;;;;4993256;28;20389;-62
2022/05/28 11:20:08;;;;;;;6.57;2.60;;;20.70;99.90;;;;;;4899295;29;20416;-63
2022/05/28 11:22:57;;;;;;;6.80;1.90;;;21.30;99.90;;;;;;4963823;28;20413;-62
2022/05/28 11:25:39;;;;;;;7.70;1.80;;;21.40;99.90;;;;;;4992858;28;20414;-63
2022/05/28 11:28:38;;;;;;;7.20;1.40;;;20.80;99.90;;;;;;4993078;28;20406;-63
2022/05/28 11:31:29;;;;;;;7.67;2.17;;;20.30;99.90;;;;;;4992832;28;20486;-63
2022/05/28 11:33:59;;;;;;;5.53;1.60;;;20.40;99.90;;;;;;4991619;28;20421;-64
2022/05/28 11:36:38;;;;;;;8.02;1.70;;;21.10;99.90;;;;;;4993175;28;20378;-64
2022/05/28 11:39:20;;;;;;;6.68;1.60;;;21.60;99.90;;;;;;4990680;28;20899;-62
2022/05/28 11:41:59;;;;;;;7.40;1.75;;;21.00;99.90;;;;;;4993345;28;20425;-63
2022/05/28 11:44:39;;;;;;;7.93;1.70;;;21.10;99.90;;;;;;4991653;28;20418;-62
2022/05/28 11:47:28;;;;;;;7.13;1.50;;;21.50;99.90;;;;;;4992145;28;20394;-63
2022/05/28 11:53:00;;;;;;;7.25;1.50;;;21.40;99.90;;;;;;4992344;28;20460;-63
2022/05/28 11:55:29;;;;;;;8.60;1.55;;;21.00;99.90;;;;;;4989818;28;20401;-63
2022/05/28 11:58:05;;;;;;;6.80;1.50;;;20.10;99.90;;;;;;4991460;28;20405;-63
2022/05/28 12:00:37;;;;;;;6.90;1.70;;;20.00;99.90;;;;;;4993634;28;20433;-65
2022/05/28 12:03:25;;;;;;;7.90;2.10;;;20.40;99.90;;;;;;4994014;28;20397;-62
2022/05/28 12:05:56;;;;;;;8.93;1.90;;;20.80;99.90;;;;;;4991266;28;20425;-62
2022/05/28 12:08:42;;;;;;;8.10;2.15;;;21.20;99.90;;;;;;4990689;28;20446;-63
2022/05/28 12:11:20;;;;;;;7.20;1.90;;;21.20;99.90;;;;;;4989064;28;20449;-60
2022/05/28 12:13:54;;;;;;;8.00;2.00;;;20.70;99.90;;;;;;4990728;28;20402;-63
2022/05/28 12:16:30;;;;;;;6.93;1.70;;;20.60;99.90;;;;;;4991548;28;20411;-63
2022/05/28 12:19:05;;;;;;;6.30;1.50;;;20.10;99.90;;;;;;4991182;28;20406;-63
2022/05/28 12:21:37;;;;;;;6.88;1.50;;;19.90;99.90;;;;;;4990771;28;20765;-63
2022/05/28 12:24:19;;;;;;;6.50;1.60;;;19.80;99.90;;;;;;4991267;28;20389;-64
2022/05/28 12:29:48;;;;;;;8.43;2.07;;;20.20;99.90;;;;;;4991060;28;20390;-63
2022/05/28 12:32:17;;;;;;;8.50;1.73;;;20.10;99.90;;;;;;4991208;28;20537;-64
2022/05/28 12:35:03;;;;;;;6.60;1.50;;;20.00;99.90;;;;;;4988711;28;20950;-62
2022/05/28 12:38:12;;;;;;;6.27;1.40;;;19.80;99.90;;;;;;4990277;28;20402;-63
2022/05/28 12:40:58;;;;;;;9.50;1.80;;;19.70;99.90;;;;;;4967498;28;20477;-56
2022/05/28 12:43:34;;;;;;;10.50;1.65;;;19.50;99.90;;;;;;4991280;28;20385;-65
2022/05/28 12:46:21;;;;;;;6.73;1.80;;;19.80;99.90;;;;;;4990526;28;20930;-62
2022/05/28 12:49:03;;;;;;;7.40;1.65;;;19.90;99.90;;;;;;4990588;28;20433;-62
2022/05/28 12:51:55;;;;;;;7.82;2.10;;;20.10;99.90;;;;;;4990633;28;20724;-63
2022/05/28 12:54:33;;;;;;;8.50;2.10;;;20.80;99.90;;;;;;4986025;28;20391;-60
2022/05/28 12:57:26;;;;;;;6.78;1.40;;;20.70;99.90;;;;;;4994913;28;20392;-65
2022/05/28 13:00:20;;;;;;;7.82;1.63;;;20.50;99.90;;;;;;4990490;28;20406;-64
2022/05/28 13:02:47;;;;;;;10.15;2.00;;;20.10;99.90;;;;;;4978710;28;20438;-64
2022/05/28 13:05:12;;;;;;;5.95;1.40;;;20.10;99.90;;;;;;4994271;28;20764;-67
2022/05/28 13:07:52;;;;;;;7.23;1.50;;;20.50;99.90;;;;;;4990438;28;20391;-57
2022/05/28 13:10:23;;;;;;;6.72;1.40;;;20.90;99.90;;;;;;4990619;28;20474;-62
2022/05/28 13:13:10;;;;;;;7.00;1.45;;;20.80;99.90;;;;;;4989990;28;20567;-65
2022/05/28 13:15:54;;;;;;;5.88;1.45;;;20.90;99.90;;;;;;4998607;28;20970;-60
2022/05/28 13:18:47;;;;;;;6.10;1.50;;;21.30;99.90;;;;;;4987173;28;20391;-64
2022/05/28 13:21:56;;;;;;;6.70;1.75;;;21.70;99.90;;;;;;4988425;28;20395;-63